Time,TemperatureF,DewpointF,PressureIn,WindDirection,WindDirectionDegrees,WindSpeedMPH,WindSpeedGustMPH,Humidity,HourlyPrecipIn,Conditions,Clouds,dailyrainin,SoftwareType,DateUTC
2013-04-24 00:00:00,55.0,53.9,29.84,SSE,148,0.0,2.0,96,0.00,,,0.23,Wunderground v.1.15,2013-04-24 04:00:00,
2013-04-24 00:05:00,55.1,54.0,29.83,ESE,116,1.0,2.0,96,0.00,,,0.00,Wunderground v.1.15,2013-04-24 04:05:00,
2013-04-24 00:10:00,55.3,54.2,29.84,WSW,257,1.0,1.0,96,0.00,,,0.00,Wunderground v.1.15,2013-04-24 04:10:00,
2013-04-24 00:15:00,55.3,54.2,29.83,SE,146,1.0,1.0,96,0.00,,,0.00,Wunderground v.1.15,2013-04-24 04:15:00,
2013-04-24 00:20:00,55.4,54.3,29.83,ESE,116,0.0,0.0,96,0.00,,,0.00,Wunderground v.1.15,2013-04-24 04:20:00,
2013-04-24 00:30:00,55.4,54.3,29.82,SE,137,1.0,1.0,96,0.00,,,0.00,Wunderground v.1.15,2013-04-24 04:30:00,
2013-04-24 00:35:00,55.4,54.3,29.82,SW,219,1.0,2.0,96,0.00,,,0.00,Wunderground v.1.15,2013-04-24 04:35:00,
2013-04-24 00:45:00,55.5,54.4,29.82,SW,224,1.0,3.0,96,0.00,,,0.01,Wunderground v.1.15,2013-04-24 04:45:00,
2013-04-24 00:50:00,55.6,54.2,29.82,ESE,108,1.0,1.0,95,0.05,,,0.02,Wunderground v.1.15,2013-04-24 04:50:00,
2013-04-24 01:00:00,56.0,54.3,29.82,SSE,151,3.0,3.0,94,0.07,,,0.03,Wunderground v.1.15,2013-04-24 05:00:00,
2013-04-24 01:10:00,55.9,53.9,29.82,SSW,199,4.0,8.0,93,0.16,,,0.05,Wunderground v.1.15,2013-04-24 05:10:00,
2013-04-24 01:20:00,56.0,54.0,29.80,SSW,212,4.0,4.0,93,0.07,,,0.06,Wunderground v.1.15,2013-04-24 05:20:00,
2013-04-24 01:25:00,56.2,53.9,29.80,SW,229,3.0,5.0,92,0.06,,,0.07,Wunderground v.1.15,2013-04-24 05:25:00,
2013-04-24 01:35:00,56.4,54.1,29.81,South,172,4.0,6.0,92,0.21,,,0.11,Wunderground v.1.15,2013-04-24 05:35:00,
2013-04-24 01:40:00,56.4,54.1,29.80,SSW,210,3.0,3.0,92,0.53,,,0.15,Wunderground v.1.15,2013-04-24 05:40:00,
2013-04-24 01:50:00,56.2,54.2,29.79,SSW,212,3.0,4.0,93,0.08,,,0.17,Wunderground v.1.15,2013-04-24 05:50:00,
2013-04-24 01:55:00,56.2,54.2,29.79,WSW,242,3.0,4.0,93,0.08,,,0.18,Wunderground v.1.15,2013-04-24 05:55:00,
2013-04-24 02:00:00,56.2,54.2,29.78,South,181,2.0,3.0,93,0.06,,,0.18,Wunderground v.1.15,2013-04-24 06:00:00,
2013-04-24 02:05:00,56.2,54.2,29.78,SW,222,2.0,3.0,93,0.04,,,0.18,Wunderground v.1.15,2013-04-24 06:05:00,
2013-04-24 02:15:00,56.1,54.1,29.78,SSE,147,1.0,2.0,93,0.00,,,0.18,Wunderground v.1.15,2013-04-24 06:15:00,
2013-04-24 02:25:00,56.2,54.2,29.77,SSE,160,2.0,4.0,93,0.00,,,0.19,Wunderground v.1.15,2013-04-24 06:25:00,
2013-04-24 02:30:00,56.2,54.2,29.77,SW,231,2.0,2.0,93,0.00,,,0.19,Wunderground v.1.15,2013-04-24 06:30:00,
2013-04-24 02:40:00,56.3,54.3,29.77,ENE,72,2.0,2.0,93,0.00,,,0.19,Wunderground v.1.15,2013-04-24 06:40:00,
2013-04-24 02:45:00,56.4,54.4,29.76,SW,228,3.0,3.0,93,0.00,,,0.19,Wunderground v.1.15,2013-04-24 06:45:00,
2013-04-24 02:55:00,56.8,54.2,29.76,SW,219,3.0,5.0,91,0.00,,,0.19,Wunderground v.1.15,2013-04-24 06:55:00,
2013-04-24 03:00:00,57.1,54.5,29.76,SE,131,3.0,3.0,91,0.00,,,0.19,Wunderground v.1.15,2013-04-24 07:00:00,
2013-04-24 03:10:00,57.4,54.5,29.75,SW,219,3.0,6.0,90,0.00,,,0.19,Wunderground v.1.15,2013-04-24 07:10:00,
2013-04-24 03:15:00,57.5,54.3,29.75,SSW,203,4.0,6.0,89,0.00,,,0.19,Wunderground v.1.15,2013-04-24 07:15:00,
2013-04-24 03:25:00,57.7,54.5,29.75,East,88,5.0,5.0,89,0.00,,,0.19,Wunderground v.1.15,2013-04-24 07:25:00,
2013-04-24 03:30:00,57.7,54.5,29.75,SW,214,4.0,4.0,89,0.00,,,0.19,Wunderground v.1.15,2013-04-24 07:30:00,
2013-04-24 03:40:00,57.8,54.3,29.75,SW,214,4.0,6.0,88,0.00,,,0.19,Wunderground v.1.15,2013-04-24 07:40:00,
2013-04-24 03:45:00,57.8,54.3,29.74,SW,236,4.0,6.0,88,0.00,,,0.19,Wunderground v.1.15,2013-04-24 07:45:00,
2013-04-24 03:55:00,57.8,54.3,29.74,SW,214,4.0,5.0,88,0.00,,,0.19,Wunderground v.1.15,2013-04-24 07:55:00,
2013-04-24 04:00:00,57.8,54.3,29.73,SW,233,4.0,5.0,88,0.00,,,0.19,Wunderground v.1.15,2013-04-24 08:00:00,
2013-04-24 04:10:00,57.9,54.4,29.74,SW,236,4.0,5.0,88,0.00,,,0.19,Wunderground v.1.15,2013-04-24 08:10:00,
2013-04-24 04:20:00,57.8,54.3,29.74,SW,221,4.0,5.0,88,0.00,,,0.19,Wunderground v.1.15,2013-04-24 08:20:00,
2013-04-24 04:30:00,57.0,53.8,29.75,NW,310,4.0,6.0,89,0.00,,,0.19,Wunderground v.1.15,2013-04-24 08:30:00,
2013-04-24 04:40:00,53.2,50.3,29.76,NW,326,5.0,5.0,90,0.00,,,0.19,Wunderground v.1.15,2013-04-24 08:40:00,
2013-04-24 04:45:00,52.1,49.6,29.76,WNW,303,4.0,8.0,91,0.00,,,0.20,Wunderground v.1.15,2013-04-24 08:45:00,
2013-04-24 04:55:00,50.2,47.7,29.76,WNW,302,6.0,8.0,91,0.00,,,0.20,Wunderground v.1.15,2013-04-24 08:55:00,
2013-04-24 05:00:00,49.6,47.7,29.76,North,356,6.0,10.0,93,0.00,,,0.20,Wunderground v.1.15,2013-04-24 09:00:00,
2013-04-24 05:10:00,48.1,45.9,29.77,NW,311,6.0,8.0,92,0.00,,,0.20,Wunderground v.1.15,2013-04-24 09:10:00,
2013-04-24 05:15:00,47.5,45.3,29.77,NNW,329,7.0,9.0,92,0.00,,,0.20,Wunderground v.1.15,2013-04-24 09:15:00,
2013-04-24 05:25:00,47.0,45.1,29.77,NNW,328,5.0,8.0,93,0.00,,,0.20,Wunderground v.1.15,2013-04-24 09:25:00,
2013-04-24 05:35:00,46.6,44.4,29.78,North,1,6.0,10.0,92,0.00,,,0.20,Wunderground v.1.15,2013-04-24 09:35:00,
2013-04-24 05:45:00,45.9,43.4,29.79,NNW,336,7.0,10.0,91,0.00,,,0.21,Wunderground v.1.15,2013-04-24 09:45:00,
2013-04-24 05:55:00,45.4,43.2,29.80,NNW,331,5.0,6.0,92,0.00,,,0.21,Wunderground v.1.15,2013-04-24 09:55:00,
2013-04-24 06:00:00,45.1,42.9,29.80,NW,311,5.0,6.0,92,0.04,,,0.22,Wunderground v.1.15,2013-04-24 10:00:00,
2013-04-24 06:10:00,44.7,42.5,29.80,NE,40,6.0,6.0,92,0.05,,,0.23,Wunderground v.1.15,2013-04-24 10:10:00,
2013-04-24 06:15:00,44.6,42.7,29.80,NW,316,6.0,6.0,93,0.05,,,0.23,Wunderground v.1.15,2013-04-24 10:15:00,
2013-04-24 06:25:00,44.4,42.5,29.80,NNE,21,7.0,11.0,93,0.04,,,0.23,Wunderground v.1.15,2013-04-24 10:25:00,
2013-04-24 06:30:00,44.3,42.4,29.80,WNW,295,6.0,6.0,93,0.00,,,0.24,Wunderground v.1.15,2013-04-24 10:30:00,
2013-04-24 06:40:00,43.6,41.4,29.80,NW,312,8.0,8.0,92,0.00,,,0.24,Wunderground v.1.15,2013-04-24 10:40:00,
2013-04-24 06:50:00,43.0,41.1,29.81,North,352,8.0,8.0,93,0.00,,,0.25,Wunderground v.1.15,2013-04-24 10:50:00,
2013-04-24 06:55:00,42.8,40.9,29.81,NW,319,7.0,8.0,93,0.00,,,0.25,Wunderground v.1.15,2013-04-24 10:55:00,
2013-04-24 07:00:00,42.7,40.8,29.81,NNW,330,6.0,6.0,93,0.00,,,0.25,Wunderground v.1.15,2013-04-24 11:00:00,
2013-04-24 07:10:00,42.6,40.7,29.81,North,3,5.0,5.0,93,0.00,,,0.25,Wunderground v.1.15,2013-04-24 11:10:00,
2013-04-24 07:15:00,42.5,40.6,29.81,North,355,6.0,6.0,93,0.00,,,0.25,Wunderground v.1.15,2013-04-24 11:15:00,
2013-04-24 07:25:00,42.1,40.2,29.82,NW,323,4.0,7.0,93,0.00,,,0.25,Wunderground v.1.15,2013-04-24 11:25:00,
2013-04-24 07:35:00,41.7,39.8,29.83,West,273,6.0,6.0,93,0.00,,,0.25,Wunderground v.1.15,2013-04-24 11:35:00,
2013-04-24 07:45:00,41.4,39.3,29.83,ENE,63,6.0,10.0,92,0.00,,,0.26,Wunderground v.1.15,2013-04-24 11:45:00,
2013-04-24 07:55:00,41.3,39.4,29.84,NW,311,4.0,6.0,93,0.08,,,0.27,Wunderground v.1.15,2013-04-24 11:55:00,
2013-04-24 08:00:00,41.0,39.1,29.84,NW,304,4.0,5.0,93,0.07,,,0.27,Wunderground v.1.15,2013-04-24 12:00:00,
2013-04-24 08:10:00,40.7,38.8,29.85,NNW,340,5.0,8.0,93,0.05,,,0.28,Wunderground v.1.15,2013-04-24 12:10:00,
2013-04-24 08:15:00,40.6,38.7,29.85,WNW,303,5.0,8.0,93,0.05,,,0.28,Wunderground v.1.15,2013-04-24 12:15:00,
2013-04-24 08:20:00,40.3,38.4,29.85,NW,323,5.0,8.0,93,0.04,,,0.28,Wunderground v.1.15,2013-04-24 12:20:00,
2013-04-24 08:30:00,39.7,37.8,29.85,North,357,6.0,6.0,93,0.09,,,0.30,Wunderground v.1.15,2013-04-24 12:30:00,
2013-04-24 08:35:00,39.6,37.7,29.85,NW,306,6.0,6.0,93,0.09,,,0.30,Wunderground v.1.15,2013-04-24 12:35:00,
2013-04-24 08:45:00,39.5,37.9,29.84,NW,309,5.0,7.0,94,0.06,,,0.31,Wunderground v.1.15,2013-04-24 12:45:00,
2013-04-24 08:55:00,39.3,37.7,29.83,NNW,334,5.0,6.0,94,0.06,,,0.32,Wunderground v.1.15,2013-04-24 12:55:00,
2013-04-24 09:00:00,39.2,37.3,29.85,WNW,292,6.0,7.0,93,0.06,,,0.32,Wunderground v.1.15,2013-04-24 13:00:00,
2013-04-24 09:10:00,39.0,36.9,29.83,NW,312,6.0,6.0,92,0.00,,,0.32,Wunderground v.1.15,2013-04-24 13:10:00,
2013-04-24 09:20:00,39.1,37.0,29.84,NNW,333,6.0,10.0,92,0.00,,,0.32,Wunderground v.1.15,2013-04-24 13:20:00,
2013-04-24 09:30:00,38.9,36.8,29.84,NNW,327,7.0,10.0,92,0.00,,,0.32,Wunderground v.1.15,2013-04-24 13:30:00,
2013-04-24 09:40:00,38.8,36.4,29.84,NW,306,6.0,6.0,91,0.00,,,0.32,Wunderground v.1.15,2013-04-24 13:40:00,
2013-04-24 09:50:00,38.8,36.4,29.85,NW,326,6.0,6.0,91,0.00,,,0.32,Wunderground v.1.15,2013-04-24 13:50:00,
2013-04-24 09:55:00,38.8,36.7,29.85,NW,316,5.0,8.0,92,0.00,,,0.33,Wunderground v.1.15,2013-04-24 13:55:00,
2013-04-24 10:00:00,38.8,36.7,29.85,NW,321,4.0,8.0,92,0.09,,,0.34,Wunderground v.1.15,2013-04-24 14:00:00,
2013-04-24 10:10:00,38.7,36.9,29.84,NW,317,3.0,6.0,93,0.09,,,0.35,Wunderground v.1.15,2013-04-24 14:10:00,
2013-04-24 10:15:00,38.5,36.7,29.84,NNW,341,4.0,6.0,93,0.08,,,0.36,Wunderground v.1.15,2013-04-24 14:15:00,
2013-04-24 10:25:00,38.2,36.4,29.84,WNW,302,4.0,4.0,93,0.08,,,0.37,Wunderground v.1.15,2013-04-24 14:25:00,
2013-04-24 10:35:00,38.1,36.3,29.84,NNW,333,4.0,8.0,93,0.12,,,0.39,Wunderground v.1.15,2013-04-24 14:35:00,
2013-04-24 10:40:00,38.1,36.5,29.85,NNW,340,4.0,4.0,94,0.11,,,0.40,Wunderground v.1.15,2013-04-24 14:40:00,
2013-04-24 10:50:00,38.1,36.3,29.84,NW,323,3.0,3.0,93,0.08,,,0.42,Wunderground v.1.15,2013-04-24 14:50:00,
2013-04-24 10:55:00,38.0,36.2,29.86,NNW,339,4.0,5.0,93,0.11,,,0.43,Wunderground v.1.15,2013-04-24 14:55:00,
2013-04-24 11:00:00,38.0,36.2,29.87,WNW,293,3.0,3.0,93,0.08,,,0.43,Wunderground v.1.15,2013-04-24 15:00:00,
2013-04-24 11:10:00,37.9,36.1,29.87,NW,307,4.0,4.0,93,0.06,,,0.44,Wunderground v.1.15,2013-04-24 15:10:00,
2013-04-24 11:15:00,37.9,36.1,29.88,NW,318,3.0,4.0,93,0.13,,,0.45,Wunderground v.1.15,2013-04-24 15:15:00,
2013-04-24 11:25:00,37.8,36.0,29.88,WNW,298,3.0,3.0,93,0.13,,,0.48,Wunderground v.1.15,2013-04-24 15:25:00,
2013-04-24 11:30:00,37.7,35.9,29.89,WNW,297,3.0,3.0,93,0.10,,,0.49,Wunderground v.1.15,2013-04-24 15:30:00,
2013-04-24 11:40:00,37.4,35.3,29.88,NW,312,3.0,3.0,92,0.08,,,0.50,Wunderground v.1.15,2013-04-24 15:40:00,
2013-04-24 11:45:00,37.3,35.5,29.89,NW,304,4.0,5.0,93,0.07,,,0.50,Wunderground v.1.15,2013-04-24 15:45:00,
2013-04-24 11:55:00,36.7,34.9,29.88,NW,312,5.0,5.0,93,0.08,,,0.52,Wunderground v.1.15,2013-04-24 15:55:00,
2013-04-24 12:00:00,36.4,34.6,29.86,NW,321,5.0,5.0,93,0.10,,,0.53,Wunderground v.1.15,2013-04-24 16:00:00,
2013-04-24 12:10:00,35.9,34.1,29.86,NW,319,5.0,5.0,93,0.08,,,0.54,Wunderground v.1.15,2013-04-24 16:10:00,
2013-04-24 12:20:00,36.1,34.5,29.87,NW,307,4.0,5.0,94,0.05,,,0.54,Wunderground v.1.15,2013-04-24 16:20:00,
2013-04-24 12:30:00,36.1,34.5,29.87,NW,306,5.0,6.0,94,0.00,,,0.54,Wunderground v.1.15,2013-04-24 16:30:00,
2013-04-24 12:40:00,36.4,34.8,29.86,NW,307,4.0,4.0,94,0.00,,,0.54,Wunderground v.1.15,2013-04-24 16:40:00,
2013-04-24 12:50:00,36.4,34.6,29.88,NW,307,5.0,5.0,93,0.00,,,0.54,Wunderground v.1.15,2013-04-24 16:50:00,
2013-04-24 13:00:00,36.6,34.8,29.88,NW,307,6.0,6.0,93,0.00,,,0.54,Wunderground v.1.15,2013-04-24 17:00:00,
2013-04-24 13:10:00,36.7,34.6,29.89,WNW,293,5.0,7.0,92,0.00,,,0.54,Wunderground v.1.15,2013-04-24 17:10:00,
2013-04-24 13:20:00,36.6,34.5,29.90,NNW,335,6.0,6.0,92,0.00,,,0.54,Wunderground v.1.15,2013-04-24 17:20:00,
2013-04-24 13:30:00,36.3,34.2,29.91,WNW,293,6.0,6.0,92,0.00,,,0.55,Wunderground v.1.15,2013-04-24 17:30:00,
2013-04-24 13:40:00,36.2,34.1,29.91,NW,306,5.0,5.0,92,0.00,,,0.55,Wunderground v.1.15,2013-04-24 17:40:00,
2013-04-24 13:50:00,36.0,34.2,29.92,WNW,283,5.0,6.0,93,0.00,,,0.56,Wunderground v.1.15,2013-04-24 17:50:00,
2013-04-24 14:00:00,36.0,34.2,29.92,WNW,300,5.0,5.0,93,0.00,,,0.56,Wunderground v.1.15,2013-04-24 18:00:00,
2013-04-24 14:10:00,36.0,34.2,29.92,NW,319,5.0,7.0,93,0.00,,,0.56,Wunderground v.1.15,2013-04-24 18:10:00,
2013-04-24 14:15:00,36.1,34.3,29.93,WNW,291,6.0,7.0,93,0.00,,,0.56,Wunderground v.1.15,2013-04-24 18:15:00,
2013-04-24 14:25:00,36.3,34.2,29.93,NW,306,6.0,7.0,92,0.00,,,0.57,Wunderground v.1.15,2013-04-24 18:25:00,
2013-04-24 14:30:00,36.4,34.3,29.93,NW,304,6.0,6.0,92,0.00,,,0.57,Wunderground v.1.15,2013-04-24 18:30:00,
2013-04-24 14:40:00,36.5,34.4,29.93,West,278,5.0,7.0,92,0.00,,,0.57,Wunderground v.1.15,2013-04-24 18:40:00,
2013-04-24 14:50:00,36.5,34.4,29.93,NW,314,5.0,6.0,92,0.00,,,0.58,Wunderground v.1.15,2013-04-24 18:50:00,
2013-04-24 15:00:00,36.8,34.7,29.93,West,278,6.0,6.0,92,0.00,,,0.58,Wunderground v.1.15,2013-04-24 19:00:00,
2013-04-24 15:10:00,36.7,34.3,29.94,WNW,288,5.0,8.0,91,0.00,,,0.58,Wunderground v.1.15,2013-04-24 19:10:00,
2013-04-24 15:20:00,36.7,34.6,29.95,WNW,287,6.0,6.0,92,0.00,,,0.58,Wunderground v.1.15,2013-04-24 19:20:00,
2013-04-24 15:25:00,36.8,34.7,29.95,WNW,288,5.0,6.0,92,0.00,,,0.58,Wunderground v.1.15,2013-04-24 19:25:00,
2013-04-24 15:35:00,37.0,34.6,29.96,WSW,250,6.0,8.0,91,0.00,,,0.59,Wunderground v.1.15,2013-04-24 19:35:00,
2013-04-24 15:45:00,37.0,34.3,29.96,WNW,288,7.0,8.0,90,0.00,,,0.59,Wunderground v.1.15,2013-04-24 19:45:00,
2013-04-24 15:55:00,37.5,35.4,29.97,WSW,247,6.0,8.0,92,0.00,,,0.59,Wunderground v.1.15,2013-04-24 19:55:00,
2013-04-24 16:00:00,37.5,35.1,29.98,WSW,244,6.0,6.0,91,0.00,,,0.59,Wunderground v.1.15,2013-04-24 20:00:00,
2013-04-24 16:10:00,37.8,35.7,29.98,NW,311,5.0,6.0,92,0.00,,,0.59,Wunderground v.1.15,2013-04-24 20:10:00,
2013-04-24 16:15:00,37.8,35.7,29.99,WSW,247,5.0,9.0,92,0.00,,,0.59,Wunderground v.1.15,2013-04-24 20:15:00,
2013-04-24 16:25:00,38.0,35.9,29.99,WNW,296,5.0,5.0,92,0.00,,,0.59,Wunderground v.1.15,2013-04-24 20:25:00,
2013-04-24 16:30:00,38.0,35.9,29.99,West,263,4.0,4.0,92,0.00,,,0.59,Wunderground v.1.15,2013-04-24 20:30:00,
2013-04-24 16:40:00,38.0,35.6,30.00,WNW,300,6.0,9.0,91,0.00,,,0.59,Wunderground v.1.15,2013-04-24 20:40:00,
2013-04-24 16:50:00,38.4,36.0,30.01,West,279,5.0,6.0,91,0.00,,,0.59,Wunderground v.1.15,2013-04-24 20:50:00,
2013-04-24 16:55:00,38.5,35.8,30.00,WNW,283,4.0,6.0,90,0.00,,,0.59,Wunderground v.1.15,2013-04-24 20:55:00,
2013-04-24 17:00:00,38.8,36.1,30.00,West,259,5.0,5.0,90,0.00,,,0.59,Wunderground v.1.15,2013-04-24 21:00:00,
2013-04-24 17:10:00,38.8,36.1,30.02,NW,304,5.0,11.0,90,0.00,,,0.60,Wunderground v.1.15,2013-04-24 21:10:00,
2013-04-24 17:20:00,38.8,35.6,30.02,WSW,257,5.0,9.0,88,0.00,,,0.60,Wunderground v.1.15,2013-04-24 21:20:00,
2013-04-24 17:25:00,39.4,36.1,30.02,NW,309,5.0,9.0,88,0.00,,,0.60,Wunderground v.1.15,2013-04-24 21:25:00,
2013-04-24 17:35:00,39.8,36.8,30.02,SW,226,5.0,8.0,89,0.00,,,0.60,Wunderground v.1.15,2013-04-24 21:35:00,
2013-04-24 17:45:00,39.9,36.3,30.02,West,267,5.0,8.0,87,0.00,,,0.60,Wunderground v.1.15,2013-04-24 21:45:00,
2013-04-24 17:50:00,39.9,36.1,30.02,West,264,6.0,6.0,86,0.00,,,0.60,Wunderground v.1.15,2013-04-24 21:50:00,
2013-04-24 18:00:00,40.5,36.3,30.03,West,271,5.0,5.0,85,0.00,,,0.60,Wunderground v.1.15,2013-04-24 22:00:00,
2013-04-24 18:10:00,41.2,36.7,30.03,WNW,287,4.0,10.0,84,0.00,,,0.60,Wunderground v.1.15,2013-04-24 22:10:00,
2013-04-24 18:20:00,41.4,36.6,30.04,WSW,238,6.0,6.0,83,0.00,,,0.60,Wunderground v.1.15,2013-04-24 22:20:00,
2013-04-24 18:25:00,41.5,36.7,30.04,West,274,6.0,6.0,83,0.00,,,0.60,Wunderground v.1.15,2013-04-24 22:25:00,
2013-04-24 18:35:00,41.7,36.3,30.05,WSW,257,4.0,9.0,81,0.00,,,0.60,Wunderground v.1.15,2013-04-24 22:35:00,
2013-04-24 18:45:00,41.7,36.0,30.05,West,264,5.0,5.0,80,0.00,,,0.60,Wunderground v.1.15,2013-04-24 22:45:00,
2013-04-24 18:55:00,41.8,35.4,30.06,WSW,241,4.0,4.0,78,0.00,,,0.60,Wunderground v.1.15,2013-04-24 22:55:00,
2013-04-24 19:00:00,42.0,35.3,30.06,WNW,285,4.0,4.0,77,0.00,,,0.60,Wunderground v.1.15,2013-04-24 23:00:00,
2013-04-24 19:10:00,42.1,35.4,30.07,West,261,4.0,6.0,77,0.00,,,0.60,Wunderground v.1.15,2013-04-24 23:10:00,
2013-04-24 19:15:00,42.2,35.2,30.07,West,269,5.0,6.0,76,0.00,,,0.60,Wunderground v.1.15,2013-04-24 23:15:00,
2013-04-24 19:25:00,42.4,35.4,30.08,WNW,284,4.0,5.0,76,0.00,,,0.60,Wunderground v.1.15,2013-04-24 23:25:00,
2013-04-24 19:30:00,42.5,35.5,30.08,WNW,288,4.0,4.0,76,0.00,,,0.60,Wunderground v.1.15,2013-04-24 23:30:00,
2013-04-24 19:40:00,42.4,35.4,30.08,SSW,202,3.0,3.0,76,0.00,,,0.60,Wunderground v.1.15,2013-04-24 23:40:00,
2013-04-24 19:50:00,42.3,35.6,30.08,WSW,240,3.0,3.0,77,0.00,,,0.60,Wunderground v.1.15,2013-04-24 23:50:00,
2013-04-24 20:00:00,42.2,35.2,30.09,SW,230,3.0,5.0,76,0.00,,,0.60,Wunderground v.1.15,2013-04-25 00:00:00,
2013-04-24 20:10:00,42.1,34.4,30.09,SW,227,4.0,4.0,74,0.00,,,0.60,Wunderground v.1.15,2013-04-25 00:10:00,
2013-04-24 20:15:00,42.0,34.3,30.09,WSW,237,4.0,4.0,74,0.00,,,0.60,Wunderground v.1.15,2013-04-25 00:15:00,
2013-04-24 20:25:00,41.6,33.6,30.10,WSW,247,4.0,4.0,73,0.00,,,0.60,Wunderground v.1.15,2013-04-25 00:25:00,
2013-04-24 20:35:00,41.3,33.0,30.10,WSW,243,4.0,4.0,72,0.00,,,0.60,Wunderground v.1.15,2013-04-25 00:35:00,
2013-04-24 20:40:00,41.2,32.9,30.10,WSW,240,4.0,5.0,72,0.00,,,0.60,Wunderground v.1.15,2013-04-25 00:40:00,
2013-04-24 20:50:00,40.9,31.5,30.12,SW,226,4.0,4.0,69,0.00,,,0.60,Wunderground v.1.15,2013-04-25 00:50:00,
2013-04-24 20:55:00,40.8,30.7,30.12,WSW,239,5.0,9.0,67,0.00,,,0.60,Wunderground v.1.15,2013-04-25 00:55:00,
2013-04-24 21:00:00,40.7,31.0,30.12,WSW,245,5.0,5.0,68,0.00,,,0.60,Wunderground v.1.15,2013-04-25 01:00:00,
2013-04-24 21:10:00,40.3,30.6,30.13,WSW,255,4.0,4.0,68,0.00,,,0.60,Wunderground v.1.15,2013-04-25 01:10:00,
2013-04-24 21:20:00,39.8,30.5,30.14,WSW,250,3.0,3.0,69,0.00,,,0.60,Wunderground v.1.15,2013-04-25 01:20:00,
2013-04-24 21:25:00,39.6,30.3,30.14,SW,228,3.0,3.0,69,0.00,,,0.60,Wunderground v.1.15,2013-04-25 01:25:00,
2013-04-24 21:35:00,39.3,30.3,30.15,WSW,250,2.0,3.0,70,0.00,,,0.60,Wunderground v.1.15,2013-04-25 01:35:00,
2013-04-24 21:45:00,38.9,30.3,30.16,SW,222,2.0,2.0,71,0.00,,,0.60,Wunderground v.1.15,2013-04-25 01:45:00,
2013-04-24 21:55:00,38.5,30.6,30.16,SW,236,1.0,2.0,73,0.00,,,0.60,Wunderground v.1.15,2013-04-25 01:55:00,
2013-04-24 22:00:00,38.4,30.5,30.16,SW,226,1.0,1.0,73,0.00,,,0.60,Wunderground v.1.15,2013-04-25 02:00:00,
2013-04-24 22:10:00,38.2,30.6,30.17,WSW,240,1.0,2.0,74,0.00,,,0.60,Wunderground v.1.15,2013-04-25 02:10:00,
2013-04-24 22:20:00,37.9,30.7,30.17,WSW,252,1.0,1.0,75,0.00,,,0.60,Wunderground v.1.15,2013-04-25 02:20:00,
2013-04-24 22:25:00,37.7,30.8,30.17,SW,236,1.0,1.0,76,0.00,,,0.60,Wunderground v.1.15,2013-04-25 02:25:00,
2013-04-24 22:35:00,37.5,30.9,30.18,SW,224,1.0,5.0,77,0.00,,,0.60,Wunderground v.1.15,2013-04-25 02:35:00,
2013-04-24 22:45:00,37.3,30.7,30.18,SW,229,2.0,2.0,77,0.00,,,0.60,Wunderground v.1.15,2013-04-25 02:45:00,
2013-04-24 22:55:00,37.1,30.6,30.18,WSW,243,2.0,2.0,77,0.00,,,0.60,Wunderground v.1.15,2013-04-25 02:55:00,
2013-04-24 23:00:00,37.1,30.6,30.18,SW,231,2.0,2.0,77,0.00,,,0.60,Wunderground v.1.15,2013-04-25 03:00:00,
2013-04-24 23:10:00,36.8,30.3,30.19,WSW,240,2.0,2.0,77,0.00,,,0.60,Wunderground v.1.15,2013-04-25 03:10:00,
2013-04-24 23:15:00,36.7,29.8,30.19,SW,235,2.0,2.0,76,0.00,,,0.60,Wunderground v.1.15,2013-04-25 03:15:00,
2013-04-24 23:25:00,36.7,29.5,30.20,SW,236,3.0,3.0,75,0.00,,,0.60,Wunderground v.1.15,2013-04-25 03:25:00,
2013-04-24 23:35:00,36.7,29.5,30.20,SW,232,2.0,3.0,75,0.00,,,0.60,Wunderground v.1.15,2013-04-25 03:35:00,
2013-04-24 23:40:00,36.5,29.3,30.20,SW,223,2.0,2.0,75,0.00,,,0.60,Wunderground v.1.15,2013-04-25 03:40:00,
2013-04-24 23:50:00,36.4,28.9,30.20,SW,219,2.0,3.0,74,0.00,,,0.60,Wunderground v.1.15,2013-04-25 03:50:00,
2013-04-24 23:55:00,36.4,28.9,30.20,SW,231,2.0,3.0,74,0.00,,,0.60,Wunderground v.1.15,2013-04-25 03:55:00,